sensor_id;sensor_type;location;lat;lon;timestamp;temperature;humidity
37289;DHT22;23174;49.462;11.000;2023-04-03T00:00:41;8.90;99.90
37289;DHT22;23174;49.462;11.000;2023-04-03T00:02:42;8.80;99.90
37289;DHT22;23174;49.462;11.000;2023-04-03T00:04:42;8.80;99.90
37289;DHT22;23174;49.462;11.000;2023-04-03T00:06:43;8.80;99.90
37289;DHT22;23174;49.462;11.000;2023-04-03T00:08:44;8.80;99.90
37289;DHT22;23174;49.462;11.000;2023-04-03T00:10:44;8.90;99.90
37289;DHT22;23174;49.462;11.000;2023-04-03T00:12:45;8.80;99.90
37289;DHT22;23174;49.462;11.000;2023-04-03T00:14:45;8.80;99.90
37289;DHT22;23174;49.462;11.000;2023-04-03T00:16:46;8.80;99.90
37289;DHT22;23174;49.462;11.000;2023-04-03T00:18:47;8.80;99.90
37289;DHT22;23174;49.462;11.000;2023-04-03T00:20:48;8.90;99.90
37289;DHT22;23174;49.462;11.000;2023-04-03T00:22:48;8.90;99.90
37289;DHT22;23174;49.462;11.000;2023-04-03T00:24:49;8.90;99.90
37289;DHT22;23174;49.462;11.000;2023-04-03T00:26:50;8.90;99.90
37289;DHT22;23174;49.462;11.000;2023-04-03T00:28:50;8.80;99.90
37289;DHT22;23174;49.462;11.000;2023-04-03T00:30:51;8.80;99.90
37289;DHT22;23174;49.462;11.000;2023-04-03T00:32:53;8.80;99.90
37289;DHT22;23174;49.462;11.000;2023-04-03T00:34:53;8.80;99.90
37289;DHT22;23174;49.462;11.000;2023-04-03T00:36:54;8.80;99.90
37289;DHT22;23174;49.462;11.000;2023-04-03T00:38:54;8.80;99.90
37289;DHT22;23174;49.462;11.000;2023-04-03T00:40:55;8.80;99.90
37289;DHT22;23174;49.462;11.000;2023-04-03T00:42:58;8.80;99.90
37289;DHT22;23174;49.462;11.000;2023-04-03T00:47:02;8.80;99.90
37289;DHT22;23174;49.462;11.000;2023-04-03T00:49:03;8.80;99.90
37289;DHT22;23174;49.462;11.000;2023-04-03T00:51:06;8.70;99.90
37289;DHT22;23174;49.462;11.000;2023-04-03T00:53:11;8.80;99.90
37289;DHT22;23174;49.462;11.000;2023-04-03T00:55:13;8.70;99.90
37289;DHT22;23174;49.462;11.000;2023-04-03T00:57:17;8.70;99.90
37289;DHT22;23174;49.462;11.000;2023-04-03T00:59:30;8.70;99.90
37289;DHT22;23174;49.462;11.000;2023-04-03T01:01:32;8.70;99.90
37289;DHT22;23174;49.462;11.000;2023-04-03T01:03:33;8.70;99.90
37289;DHT22;23174;49.462;11.000;2023-04-03T01:05:34;8.70;99.90
37289;DHT22;23174;49.462;11.000;2023-04-03T01:07:35;8.70;99.90
37289;DHT22;23174;49.462;11.000;2023-04-03T01:09:37;8.70;99.90
37289;DHT22;23174;49.462;11.000;2023-04-03T01:11:39;8.60;99.90
37289;DHT22;23174;49.462;11.000;2023-04-03T01:13:39;8.60;99.90
37289;DHT22;23174;49.462;11.000;2023-04-03T01:15:41;8.70;99.90
37289;DHT22;23174;49.462;11.000;2023-04-03T01:17:49;8.70;99.90
37289;DHT22;23174;49.462;11.000;2023-04-03T01:22:21;8.80;99.90
37289;DHT22;23174;49.462;11.000;2023-04-03T01:24:39;8.70;99.90
37289;DHT22;23174;49.462;11.000;2023-04-03T01:26:40;8.70;99.90
37289;DHT22;23174;49.462;11.000;2023-04-03T01:28:41;8.70;99.90
37289;DHT22;23174;49.462;11.000;2023-04-03T01:30:46;8.70;99.90
37289;DHT22;23174;49.462;11.000;2023-04-03T01:32:48;8.70;99.90
37289;DHT22;23174;49.462;11.000;2023-04-03T01:34:48;8.70;99.90
37289;DHT22;23174;49.462;11.000;2023-04-03T01:36:49;8.80;99.90
37289;DHT22;23174;49.462;11.000;2023-04-03T01:38:52;8.70;99.90
37289;DHT22;23174;49.462;11.000;2023-04-03T01:40:53;8.70;99.90
37289;DHT22;23174;49.462;11.000;2023-04-03T01:42:53;8.70;99.90
37289;DHT22;23174;49.462;11.000;2023-04-03T01:44:54;8.60;99.90
37289;DHT22;23174;49.462;11.000;2023-04-03T01:46:55;8.60;99.90
37289;DHT22;23174;49.462;11.000;2023-04-03T01:48:55;8.60;99.90
37289;DHT22;23174;49.462;11.000;2023-04-03T01:50:56;8.70;99.90
37289;DHT22;23174;49.462;11.000;2023-04-03T01:52:56;8.60;99.90
37289;DHT22;23174;49.462;11.000;2023-04-03T01:54:57;8.60;99.90
37289;DHT22;23174;49.462;11.000;2023-04-03T01:56:58;8.50;99.90
37289;DHT22;23174;49.462;11.000;2023-04-03T01:58:58;8.50;99.90
37289;DHT22;23174;49.462;11.000;2023-04-03T02:00:59;8.50;99.90
37289;DHT22;23174;49.462;11.000;2023-04-03T02:02:59;8.50;99.90
37289;DHT22;23174;49.462;11.000;2023-04-03T02:05:00;8.40;99.90
37289;DHT22;23174;49.462;11.000;2023-04-03T02:07:01;8.50;99.90
37289;DHT22;23174;49.462;11.000;2023-04-03T02:09:02;8.50;99.90
37289;DHT22;23174;49.462;11.000;2023-04-03T02:11:03;8.50;99.90
37289;DHT22;23174;49.462;11.000;2023-04-03T02:13:03;8.50;99.90
37289;DHT22;23174;49.462;11.000;2023-04-03T02:15:04;8.40;99.90
37289;DHT22;23174;49.462;11.000;2023-04-03T02:17:05;8.40;99.90
37289;DHT22;23174;49.462;11.000;2023-04-03T02:19:08;8.40;99.90
37289;DHT22;23174;49.462;11.000;2023-04-03T02:21:09;8.40;99.90
37289;DHT22;23174;49.462;11.000;2023-04-03T02:23:09;8.30;99.90
37289;DHT22;23174;49.462;11.000;2023-04-03T02:25:10;8.30;99.90
37289;DHT22;23174;49.462;11.000;2023-04-03T02:27:11;8.30;99.90
37289;DHT22;23174;49.462;11.000;2023-04-03T02:29:11;8.30;99.90
37289;DHT22;23174;49.462;11.000;2023-04-03T02:31:12;8.30;99.90
37289;DHT22;23174;49.462;11.000;2023-04-03T02:33:13;8.30;99.90
37289;DHT22;23174;49.462;11.000;2023-04-03T02:35:13;8.30;99.90
37289;DHT22;23174;49.462;11.000;2023-04-03T02:37:14;8.30;99.90
37289;DHT22;23174;49.462;11.000;2023-04-03T02:39:14;8.30;99.90
37289;DHT22;23174;49.462;11.000;2023-04-03T02:41:16;8.20;99.90
37289;DHT22;23174;49.462;11.000;2023-04-03T02:43:17;8.20;99.90
37289;DHT22;23174;49.462;11.000;2023-04-03T02:45:17;8.20;99.90
37289;DHT22;23174;49.462;11.000;2023-04-03T02:47:18;8.10;99.90
37289;DHT22;23174;49.462;11.000;2023-04-03T02:49:19;8.10;99.90
37289;DHT22;23174;49.462;11.000;2023-04-03T02:51:19;8.10;99.90
37289;DHT22;23174;49.462;11.000;2023-04-03T02:53:20;8.10;99.90
37289;DHT22;23174;49.462;11.000;2023-04-03T02:55:20;8.10;99.90
37289;DHT22;23174;49.462;11.000;2023-04-03T02:57:21;8.00;99.90
37289;DHT22;23174;49.462;11.000;2023-04-03T02:59:21;8.10;99.90
37289;DHT22;23174;49.462;11.000;2023-04-03T03:01:22;8.00;99.90
37289;DHT22;23174;49.462;11.000;2023-04-03T03:03:23;8.00;99.90
37289;DHT22;23174;49.462;11.000;2023-04-03T03:05:23;7.90;99.90
37289;DHT22;23174;49.462;11.000;2023-04-03T03:07:24;8.00;99.90
37289;DHT22;23174;49.462;11.000;2023-04-03T03:09:25;8.00;99.90
37289;DHT22;23174;49.462;11.000;2023-04-03T03:11:26;8.00;99.90
37289;DHT22;23174;49.462;11.000;2023-04-03T03:13:27;8.00;99.90
37289;DHT22;23174;49.462;11.000;2023-04-03T03:15:28;8.00;99.90
37289;DHT22;23174;49.462;11.000;2023-04-03T03:17:28;8.00;99.90
37289;DHT22;23174;49.462;11.000;2023-04-03T03:19:29;8.00;99.90
37289;DHT22;23174;49.462;11.000;2023-04-03T03:21:29;8.00;99.90
37289;DHT22;23174;49.462;11.000;2023-04-03T03:23:31;8.00;99.90
37289;DHT22;23174;49.462;11.000;2023-04-03T03:25:32;7.90;99.90
37289;DHT22;23174;49.462;11.000;2023-04-03T03:27:33;8.00;99.90
37289;DHT22;23174;49.462;11.000;2023-04-03T03:29:33;7.90;99.90
37289;DHT22;23174;49.462;11.000;2023-04-03T03:31:34;8.00;99.90
37289;DHT22;23174;49.462;11.000;2023-04-03T03:33:34;8.00;99.90
37289;DHT22;23174;49.462;11.000;2023-04-03T03:35:35;8.00;99.90
37289;DHT22;23174;49.462;11.000;2023-04-03T03:37:36;7.90;99.90
37289;DHT22;23174;49.462;11.000;2023-04-03T03:39:36;8.00;99.90
37289;DHT22;23174;49.462;11.000;2023-04-03T03:41:37;7.90;99.90
37289;DHT22;23174;49.462;11.000;2023-04-03T03:43:38;7.90;99.90
37289;DHT22;23174;49.462;11.000;2023-04-03T03:45:38;7.90;99.90
37289;DHT22;23174;49.462;11.000;2023-04-03T03:47:39;8.00;99.90
37289;DHT22;23174;49.462;11.000;2023-04-03T03:49:40;7.90;99.90
37289;DHT22;23174;49.462;11.000;2023-04-03T03:51:41;7.90;99.90
37289;DHT22;23174;49.462;11.000;2023-04-03T03:53:41;7.90;99.90
37289;DHT22;23174;49.462;11.000;2023-04-03T03:55:42;7.90;99.90
37289;DHT22;23174;49.462;11.000;2023-04-03T03:57:43;7.90;99.90
37289;DHT22;23174;49.462;11.000;2023-04-03T03:59:43;7.90;99.90
37289;DHT22;23174;49.462;11.000;2023-04-03T04:01:44;7.90;99.90
37289;DHT22;23174;49.462;11.000;2023-04-03T04:03:45;7.90;99.90
37289;DHT22;23174;49.462;11.000;2023-04-03T04:05:45;7.90;99.90
37289;DHT22;23174;49.462;11.000;2023-04-03T04:07:46;7.90;99.90
37289;DHT22;23174;49.462;11.000;2023-04-03T04:09:46;7.90;99.90
37289;DHT22;23174;49.462;11.000;2023-04-03T04:11:47;8.00;99.90
37289;DHT22;23174;49.462;11.000;2023-04-03T04:13:47;8.00;99.90
37289;DHT22;23174;49.462;11.000;2023-04-03T04:15:48;8.00;99.90
37289;DHT22;23174;49.462;11.000;2023-04-03T04:17:49;8.10;99.90
37289;DHT22;23174;49.462;11.000;2023-04-03T04:19:49;8.10;99.90
37289;DHT22;23174;49.462;11.000;2023-04-03T04:21:50;8.00;99.90
37289;DHT22;23174;49.462;11.000;2023-04-03T04:23:50;8.00;99.90
37289;DHT22;23174;49.462;11.000;2023-04-03T04:25:51;8.00;99.90
37289;DHT22;23174;49.462;11.000;2023-04-03T04:27:52;8.10;99.90
37289;DHT22;23174;49.462;11.000;2023-04-03T04:29:52;8.10;99.90
37289;DHT22;23174;49.462;11.000;2023-04-03T04:31:53;8.10;99.90
37289;DHT22;23174;49.462;11.000;2023-04-03T04:33:53;8.10;99.90
37289;DHT22;23174;49.462;11.000;2023-04-03T04:35:54;8.10;99.90
37289;DHT22;23174;49.462;11.000;2023-04-03T04:37:54;8.10;99.90
37289;DHT22;23174;49.462;11.000;2023-04-03T04:39:55;8.10;99.90
37289;DHT22;23174;49.462;11.000;2023-04-03T04:41:56;8.00;99.90
37289;DHT22;23174;49.462;11.000;2023-04-03T04:43:57;8.10;99.90
37289;DHT22;23174;49.462;11.000;2023-04-03T04:46:06;8.00;99.90
37289;DHT22;23174;49.462;11.000;2023-04-03T04:48:07;8.00;99.90
37289;DHT22;23174;49.462;11.000;2023-04-03T04:50:08;7.90;99.90
37289;DHT22;23174;49.462;11.000;2023-04-03T04:52:08;8.00;99.90
37289;DHT22;23174;49.462;11.000;2023-04-03T04:54:09;7.90;99.90
37289;DHT22;23174;49.462;11.000;2023-04-03T04:56:10;7.80;99.90
37289;DHT22;23174;49.462;11.000;2023-04-03T04:58:11;7.90;99.90
37289;DHT22;23174;49.462;11.000;2023-04-03T05:00:12;7.80;99.90
37289;DHT22;23174;49.462;11.000;2023-04-03T05:02:13;7.90;99.90
37289;DHT22;23174;49.462;11.000;2023-04-03T05:04:13;7.80;99.90
37289;DHT22;23174;49.462;11.000;2023-04-03T05:06:15;7.80;99.90
37289;DHT22;23174;49.462;11.000;2023-04-03T05:08:16;7.80;99.90
37289;DHT22;23174;49.462;11.000;2023-04-03T05:10:16;7.80;99.90
37289;DHT22;23174;49.462;11.000;2023-04-03T05:12:17;7.80;99.90
37289;DHT22;23174;49.462;11.000;2023-04-03T05:14:18;7.90;99.90
37289;DHT22;23174;49.462;11.000;2023-04-03T05:16:18;7.90;99.90
37289;DHT22;23174;49.462;11.000;2023-04-03T05:18:19;7.80;99.90
37289;DHT22;23174;49.462;11.000;2023-04-03T05:20:19;7.80;99.90
37289;DHT22;23174;49.462;11.000;2023-04-03T05:22:20;7.70;99.90
37289;DHT22;23174;49.462;11.000;2023-04-03T05:24:21;7.70;99.90
37289;DHT22;23174;49.462;11.000;2023-04-03T05:26:21;7.80;99.90
37289;DHT22;23174;49.462;11.000;2023-04-03T05:28:22;7.80;99.90
37289;DHT22;23174;49.462;11.000;2023-04-03T05:30:23;7.70;99.90
37289;DHT22;23174;49.462;11.000;2023-04-03T05:32:24;7.70;99.90
37289;DHT22;23174;49.462;11.000;2023-04-03T05:34:26;7.70;99.90
37289;DHT22;23174;49.462;11.000;2023-04-03T05:36:27;7.80;99.90
37289;DHT22;23174;49.462;11.000;2023-04-03T05:38:27;7.70;99.90
37289;DHT22;23174;49.462;11.000;2023-04-03T05:40:29;7.70;99.90
37289;DHT22;23174;49.462;11.000;2023-04-03T05:42:29;7.70;99.90
37289;DHT22;23174;49.462;11.000;2023-04-03T05:44:30;7.70;99.90
37289;DHT22;23174;49.462;11.000;2023-04-03T05:46:31;7.80;99.90
37289;DHT22;23174;49.462;11.000;2023-04-03T05:48:31;7.70;99.90
37289;DHT22;23174;49.462;11.000;2023-04-03T05:50:32;7.80;99.90
37289;DHT22;23174;49.462;11.000;2023-04-03T05:52:38;7.80;99.90
37289;DHT22;23174;49.462;11.000;2023-04-03T05:54:40;7.80;99.90
37289;DHT22;23174;49.462;11.000;2023-04-03T05:56:41;7.80;99.90
37289;DHT22;23174;49.462;11.000;2023-04-03T05:58:41;7.80;99.90
37289;DHT22;23174;49.462;11.000;2023-04-03T06:00:42;7.80;99.90
37289;DHT22;23174;49.462;11.000;2023-04-03T06:02:42;7.70;99.90
37289;DHT22;23174;49.462;11.000;2023-04-03T06:04:43;7.80;99.90
37289;DHT22;23174;49.462;11.000;2023-04-03T06:08:51;7.80;99.90
37289;DHT22;23174;49.462;11.000;2023-04-03T06:10:52;7.90;99.90
37289;DHT22;23174;49.462;11.000;2023-04-03T06:12:53;7.90;99.90
37289;DHT22;23174;49.462;11.000;2023-04-03T06:14:53;8.00;99.90
37289;DHT22;23174;49.462;11.000;2023-04-03T06:16:54;8.20;99.90
37289;DHT22;23174;49.462;11.000;2023-04-03T06:18:55;8.10;99.90
37289;DHT22;23174;49.462;11.000;2023-04-03T06:20:56;8.10;99.90
37289;DHT22;23174;49.462;11.000;2023-04-03T06:22:57;8.10;99.90
37289;DHT22;23174;49.462;11.000;2023-04-03T06:24:57;8.10;99.90
37289;DHT22;23174;49.462;11.000;2023-04-03T06:26:58;8.20;99.90
37289;DHT22;23174;49.462;11.000;2023-04-03T06:28:59;8.20;99.90
37289;DHT22;23174;49.462;11.000;2023-04-03T06:31:00;8.30;99.90
37289;DHT22;23174;49.462;11.000;2023-04-03T06:33:00;8.30;99.90
37289;DHT22;23174;49.462;11.000;2023-04-03T06:35:01;8.30;99.90
37289;DHT22;23174;49.462;11.000;2023-04-03T06:37:03;8.30;99.90
37289;DHT22;23174;49.462;11.000;2023-04-03T06:39:03;8.30;99.90
37289;DHT22;23174;49.462;11.000;2023-04-03T06:41:07;8.30;99.90
37289;DHT22;23174;49.462;11.000;2023-04-03T06:43:07;8.20;99.90
37289;DHT22;23174;49.462;11.000;2023-04-03T06:45:09;8.30;99.90
37289;DHT22;23174;49.462;11.000;2023-04-03T06:47:15;8.30;99.90
37289;DHT22;23174;49.462;11.000;2023-04-03T06:49:16;8.40;99.90
37289;DHT22;23174;49.462;11.000;2023-04-03T06:51:22;8.40;99.90
37289;DHT22;23174;49.462;11.000;2023-04-03T06:53:23;8.40;99.90
37289;DHT22;23174;49.462;11.000;2023-04-03T06:55:23;8.50;99.90
37289;DHT22;23174;49.462;11.000;2023-04-03T06:57:24;8.40;99.90
37289;DHT22;23174;49.462;11.000;2023-04-03T06:59:25;8.40;99.90
37289;DHT22;23174;49.462;11.000;2023-04-03T07:01:27;8.50;99.90
37289;DHT22;23174;49.462;11.000;2023-04-03T07:03:28;8.50;99.90
37289;DHT22;23174;49.462;11.000;2023-04-03T07:05:28;8.50;99.90
37289;DHT22;23174;49.462;11.000;2023-04-03T07:07:29;8.50;99.90
37289;DHT22;23174;49.462;11.000;2023-04-03T07:09:30;8.50;99.90
37289;DHT22;23174;49.462;11.000;2023-04-03T07:11:30;8.50;99.90
37289;DHT22;23174;49.462;11.000;2023-04-03T07:13:31;8.50;99.90
37289;DHT22;23174;49.462;11.000;2023-04-03T07:15:32;8.50;99.90
37289;DHT22;23174;49.462;11.000;2023-04-03T07:17:34;8.50;99.90
37289;DHT22;23174;49.462;11.000;2023-04-03T07:19:34;8.60;99.90
37289;DHT22;23174;49.462;11.000;2023-04-03T07:21:35;8.60;99.90
37289;DHT22;23174;49.462;11.000;2023-04-03T07:23:36;8.60;99.90
37289;DHT22;23174;49.462;11.000;2023-04-03T07:25:42;8.70;99.90
37289;DHT22;23174;49.462;11.000;2023-04-03T07:27:43;8.60;99.90
37289;DHT22;23174;49.462;11.000;2023-04-03T07:29:44;8.70;99.90
37289;DHT22;23174;49.462;11.000;2023-04-03T07:31:44;8.70;99.90
37289;DHT22;23174;49.462;11.000;2023-04-03T07:33:45;8.80;99.90
37289;DHT22;23174;49.462;11.000;2023-04-03T07:35:46;8.70;99.90
37289;DHT22;23174;49.462;11.000;2023-04-03T07:37:47;8.70;99.90
37289;DHT22;23174;49.462;11.000;2023-04-03T07:39:47;8.70;99.90
37289;DHT22;23174;49.462;11.000;2023-04-03T07:41:48;8.80;99.90
37289;DHT22;23174;49.462;11.000;2023-04-03T07:43:50;8.80;99.90
37289;DHT22;23174;49.462;11.000;2023-04-03T07:45:50;8.80;99.90
37289;DHT22;23174;49.462;11.000;2023-04-03T07:47:51;8.80;99.90
37289;DHT22;23174;49.462;11.000;2023-04-03T07:49:52;8.80;99.90
37289;DHT22;23174;49.462;11.000;2023-04-03T07:51:52;8.80;99.90
37289;DHT22;23174;49.462;11.000;2023-04-03T07:53:53;8.80;99.90
37289;DHT22;23174;49.462;11.000;2023-04-03T07:55:54;8.80;99.90
37289;DHT22;23174;49.462;11.000;2023-04-03T07:57:56;8.80;99.90
37289;DHT22;23174;49.462;11.000;2023-04-03T07:59:57;8.90;99.90
37289;DHT22;23174;49.462;11.000;2023-04-03T08:01:58;8.90;99.90
37289;DHT22;23174;49.462;11.000;2023-04-03T08:03:59;8.90;99.90
37289;DHT22;23174;49.462;11.000;2023-04-03T08:06:05;8.90;99.90
37289;DHT22;23174;49.462;11.000;2023-04-03T08:08:06;8.90;99.90
37289;DHT22;23174;49.462;11.000;2023-04-03T08:10:08;9.00;99.90
37289;DHT22;23174;49.462;11.000;2023-04-03T08:12:08;9.00;99.90
37289;DHT22;23174;49.462;11.000;2023-04-03T08:14:12;9.00;99.90
37289;DHT22;23174;49.462;11.000;2023-04-03T08:16:18;9.00;99.90
37289;DHT22;23174;49.462;11.000;2023-04-03T08:18:20;9.00;99.90
37289;DHT22;23174;49.462;11.000;2023-04-03T08:20:24;9.10;99.90
37289;DHT22;23174;49.462;11.000;2023-04-03T08:22:26;9.10;99.90
37289;DHT22;23174;49.462;11.000;2023-04-03T08:24:26;9.20;99.90
37289;DHT22;23174;49.462;11.000;2023-04-03T08:26:27;9.10;99.90
37289;DHT22;23174;49.462;11.000;2023-04-03T08:28:27;9.10;99.90
37289;DHT22;23174;49.462;11.000;2023-04-03T08:30:28;9.10;99.90
37289;DHT22;23174;49.462;11.000;2023-04-03T08:32:29;9.10;99.90
37289;DHT22;23174;49.462;11.000;2023-04-03T08:34:29;9.20;99.90
37289;DHT22;23174;49.462;11.000;2023-04-03T08:36:30;9.20;99.90
37289;DHT22;23174;49.462;11.000;2023-04-03T08:38:31;9.30;99.90
37289;DHT22;23174;49.462;11.000;2023-04-03T08:40:31;9.30;99.90
37289;DHT22;23174;49.462;11.000;2023-04-03T08:47:47;9.30;99.90
37289;DHT22;23174;49.462;11.000;2023-04-03T08:50:00;9.40;99.90
37289;DHT22;23174;49.462;11.000;2023-04-03T08:52:07;9.40;99.90
37289;DHT22;23174;49.462;11.000;2023-04-03T08:54:24;9.40;99.90
37289;DHT22;23174;49.462;11.000;2023-04-03T08:56:29;9.30;99.90
37289;DHT22;23174;49.462;11.000;2023-04-03T08:58:36;9.30;99.90
37289;DHT22;23174;49.462;11.000;2023-04-03T09:02:58;9.30;99.90
37289;DHT22;23174;49.462;11.000;2023-04-03T09:04:58;9.50;99.90
37289;DHT22;23174;49.462;11.000;2023-04-03T09:07:06;10.20;99.90
37289;DHT22;23174;49.462;11.000;2023-04-03T09:15:37;9.60;99.50
37289;DHT22;23174;49.462;11.000;2023-04-03T09:19:49;9.50;99.10
37289;DHT22;23174;49.462;11.000;2023-04-03T09:21:52;9.50;98.90
37289;DHT22;23174;49.462;11.000;2023-04-03T09:23:57;9.40;98.20
37289;DHT22;23174;49.462;11.000;2023-04-03T09:26:14;9.40;98.10
37289;DHT22;23174;49.462;11.000;2023-04-03T09:28:16;9.40;98.10
37289;DHT22;23174;49.462;11.000;2023-04-03T09:30:22;9.40;97.70
37289;DHT22;23174;49.462;11.000;2023-04-03T09:32:29;9.40;97.80
37289;DHT22;23174;49.462;11.000;2023-04-03T09:34:32;9.40;97.50
37289;DHT22;23174;49.462;11.000;2023-04-03T09:36:44;9.50;97.30
37289;DHT22;23174;49.462;11.000;2023-04-03T09:38:45;9.50;96.90
37289;DHT22;23174;49.462;11.000;2023-04-03T09:40:49;9.50;96.50
37289;DHT22;23174;49.462;11.000;2023-04-03T09:42:50;9.40;96.40
37289;DHT22;23174;49.462;11.000;2023-04-03T09:44:59;9.40;96.80
37289;DHT22;23174;49.462;11.000;2023-04-03T09:47:37;9.50;98.20
37289;DHT22;23174;49.462;11.000;2023-04-03T09:49:38;9.40;97.50
37289;DHT22;23174;49.462;11.000;2023-04-03T09:51:38;9.50;96.40
37289;DHT22;23174;49.462;11.000;2023-04-03T09:53:41;9.50;96.40
37289;DHT22;23174;49.462;11.000;2023-04-03T09:55:43;9.60;96.30
37289;DHT22;23174;49.462;11.000;2023-04-03T09:57:45;9.60;96.40
37289;DHT22;23174;49.462;11.000;2023-04-03T10:00:00;9.50;96.50
37289;DHT22;23174;49.462;11.000;2023-04-03T10:04:25;9.60;97.00
37289;DHT22;23174;49.462;11.000;2023-04-03T10:06:42;9.60;96.20
37289;DHT22;23174;49.462;11.000;2023-04-03T10:09:20;9.60;95.50
37289;DHT22;23174;49.462;11.000;2023-04-03T10:11:19;9.70;94.60
37289;DHT22;23174;49.462;11.000;2023-04-03T10:13:20;9.90;95.80
37289;DHT22;23174;49.462;11.000;2023-04-03T10:15:21;9.90;94.00
37289;DHT22;23174;49.462;11.000;2023-04-03T10:21:50;9.80;93.40
37289;DHT22;23174;49.462;11.000;2023-04-03T10:24:28;9.80;92.80
37289;DHT22;23174;49.462;11.000;2023-04-03T10:26:58;9.90;94.40
37289;DHT22;23174;49.462;11.000;2023-04-03T10:31:21;10.00;93.40
37289;DHT22;23174;49.462;11.000;2023-04-03T10:38:43;10.00;93.70
37289;DHT22;23174;49.462;11.000;2023-04-03T10:41:57;9.90;92.90
37289;DHT22;23174;49.462;11.000;2023-04-03T10:43:44;10.00;92.70
37289;DHT22;23174;49.462;11.000;2023-04-03T10:46:03;10.00;93.50
37289;DHT22;23174;49.462;11.000;2023-04-03T10:50:44;9.80;94.70
37289;DHT22;23174;49.462;11.000;2023-04-03T10:53:07;9.80;95.00
37289;DHT22;23174;49.462;11.000;2023-04-03T10:57:14;9.90;93.70
37289;DHT22;23174;49.462;11.000;2023-04-03T10:59:23;10.00;94.30
37289;DHT22;23174;49.462;11.000;2023-04-03T11:01:32;9.90;93.80
37289;DHT22;23174;49.462;11.000;2023-04-03T11:03:36;9.90;93.90
37289;DHT22;23174;49.462;11.000;2023-04-03T11:06:01;9.90;93.90
37289;DHT22;23174;49.462;11.000;2023-04-03T11:08:11;9.90;94.00
37289;DHT22;23174;49.462;11.000;2023-04-03T11:10:18;10.00;93.40
37289;DHT22;23174;49.462;11.000;2023-04-03T11:14:32;9.90;92.60
37289;DHT22;23174;49.462;11.000;2023-04-03T11:16:40;9.90;92.70
37289;DHT22;23174;49.462;11.000;2023-04-03T11:18:48;10.00;92.80
37289;DHT22;23174;49.462;11.000;2023-04-03T11:23:26;10.20;91.80
37289;DHT22;23174;49.462;11.000;2023-04-03T11:25:31;10.20;91.90
37289;DHT22;23174;49.462;11.000;2023-04-03T11:27:44;10.20;91.20
37289;DHT22;23174;49.462;11.000;2023-04-03T11:29:47;10.30;91.90
37289;DHT22;23174;49.462;11.000;2023-04-03T11:32:03;10.40;93.00
37289;DHT22;23174;49.462;11.000;2023-04-03T11:36:54;10.40;91.90
37289;DHT22;23174;49.462;11.000;2023-04-03T11:39:26;10.30;92.20
37289;DHT22;23174;49.462;11.000;2023-04-03T11:41:30;10.20;93.50
37289;DHT22;23174;49.462;11.000;2023-04-03T11:43:32;10.10;92.10
37289;DHT22;23174;49.462;11.000;2023-04-03T11:47:56;10.10;93.00
37289;DHT22;23174;49.462;11.000;2023-04-03T11:50:05;10.10;92.20
37289;DHT22;23174;49.462;11.000;2023-04-03T11:52:10;10.10;92.30
37289;DHT22;23174;49.462;11.000;2023-04-03T11:54:43;10.10;93.10
37289;DHT22;23174;49.462;11.000;2023-04-03T11:56:45;10.10;91.90
37289;DHT22;23174;49.462;11.000;2023-04-03T12:01:10;10.10;92.10
37289;DHT22;23174;49.462;11.000;2023-04-03T12:05:29;10.30;92.00
37289;DHT22;23174;49.462;11.000;2023-04-03T12:07:30;10.40;91.10
37289;DHT22;23174;49.462;11.000;2023-04-03T12:11:45;10.40;91.00
37289;DHT22;23174;49.462;11.000;2023-04-03T12:15:53;10.50;91.20
37289;DHT22;23174;49.462;11.000;2023-04-03T12:17:54;10.50;90.20
37289;DHT22;23174;49.462;11.000;2023-04-03T12:19:55;10.60;90.60
37289;DHT22;23174;49.462;11.000;2023-04-03T12:28:18;10.60;90.40
37289;DHT22;23174;49.462;11.000;2023-04-03T12:30:25;10.50;90.10
37289;DHT22;23174;49.462;11.000;2023-04-03T12:35:08;10.50;90.80
37289;DHT22;23174;49.462;11.000;2023-04-03T12:44:33;10.70;91.90
37289;DHT22;23174;49.462;11.000;2023-04-03T12:46:41;10.80;91.50
37289;DHT22;23174;49.462;11.000;2023-04-03T12:48:51;10.90;90.80
37289;DHT22;23174;49.462;11.000;2023-04-03T12:50:54;10.90;90.30
37289;DHT22;23174;49.462;11.000;2023-04-03T12:52:59;10.90;90.30
37289;DHT22;23174;49.462;11.000;2023-04-03T12:55:02;10.80;90.20
37289;DHT22;23174;49.462;11.000;2023-04-03T12:59:19;10.80;90.20
37289;DHT22;23174;49.462;11.000;2023-04-03T13:01:25;10.90;90.30
37289;DHT22;23174;49.462;11.000;2023-04-03T13:03:27;11.00;90.80
37289;DHT22;23174;49.462;11.000;2023-04-03T13:05:28;11.00;88.90
37289;DHT22;23174;49.462;11.000;2023-04-03T13:07:33;10.90;89.80
37289;DHT22;23174;49.462;11.000;2023-04-03T13:09:34;10.90;90.00
37289;DHT22;23174;49.462;11.000;2023-04-03T13:11:40;10.90;90.00
37289;DHT22;23174;49.462;11.000;2023-04-03T13:14:00;11.00;90.20
37289;DHT22;23174;49.462;11.000;2023-04-03T13:16:09;11.00;90.20
37289;DHT22;23174;49.462;11.000;2023-04-03T13:18:31;11.00;90.10
37289;DHT22;23174;49.462;11.000;2023-04-03T13:20:34;11.00;90.40
37289;DHT22;23174;49.462;11.000;2023-04-03T13:22:49;10.90;89.60
37289;DHT22;23174;49.462;11.000;2023-04-03T13:24:51;10.90;89.40
37289;DHT22;23174;49.462;11.000;2023-04-03T13:26:53;10.90;89.70
37289;DHT22;23174;49.462;11.000;2023-04-03T13:29:02;10.80;90.10
37289;DHT22;23174;49.462;11.000;2023-04-03T13:33:29;10.80;89.70
37289;DHT22;23174;49.462;11.000;2023-04-03T13:35:38;10.80;91.50
37289;DHT22;23174;49.462;11.000;2023-04-03T13:37:39;10.90;90.30
37289;DHT22;23174;49.462;11.000;2023-04-03T13:40:04;11.00;90.00
37289;DHT22;23174;49.462;11.000;2023-04-03T13:42:24;11.00;90.10
37289;DHT22;23174;49.462;11.000;2023-04-03T13:44:34;11.00;90.10
37289;DHT22;23174;49.462;11.000;2023-04-03T13:46:36;11.00;91.00
37289;DHT22;23174;49.462;11.000;2023-04-03T13:48:48;11.00;91.10
37289;DHT22;23174;49.462;11.000;2023-04-03T13:51:29;11.20;90.70
37289;DHT22;23174;49.462;11.000;2023-04-03T13:53:32;11.10;89.80
37289;DHT22;23174;49.462;11.000;2023-04-03T13:55:55;11.10;88.60
37289;DHT22;23174;49.462;11.000;2023-04-03T14:02:38;11.00;90.60
37289;DHT22;23174;49.462;11.000;2023-04-03T14:04:50;11.00;90.10
37289;DHT22;23174;49.462;11.000;2023-04-03T14:06:51;11.00;90.40
37289;DHT22;23174;49.462;11.000;2023-04-03T14:08:52;10.90;89.10
37289;DHT22;23174;49.462;11.000;2023-04-03T14:10:53;10.90;88.30
37289;DHT22;23174;49.462;11.000;2023-04-03T14:12:55;10.80;89.90
37289;DHT22;23174;49.462;11.000;2023-04-03T14:14:56;10.80;89.50
37289;DHT22;23174;49.462;11.000;2023-04-03T14:16:58;10.80;89.40
37289;DHT22;23174;49.462;11.000;2023-04-03T14:19:00;10.80;88.70
37289;DHT22;23174;49.462;11.000;2023-04-03T14:21:00;10.80;87.50
37289;DHT22;23174;49.462;11.000;2023-04-03T14:23:01;10.80;87.80